Time;durP1;ratioP1;P1;durP2;ratioP2;P2;SDS_P1;SDS_P2;PMS_P1;PMS_P2;Temp;Humidity;BMP_temperature;BMP_pressure;BME280_temperature;BME280_humidity;BME280_pressure;Samples;Min_cycle;Max_cycle;Signal;HPM_P1;HPM_P2
2023/07/15 00:00:52;;;;;;;5.70;4.60;;;;;;;;;;4645218;30;20064;-85
2023/07/15 00:03:24;;;;;;;4.95;3.67;;;;;;;;;;4642932;30;20041;-85
2023/07/15 00:05:50;;;;;;;5.95;4.10;;;;;;;;;;4645611;30;20766;-84
2023/07/15 00:08:25;;;;;;;5.43;4.10;;;;;;;;;;4638926;30;20147;-84
2023/07/15 00:10:51;;;;;;;6.90;4.90;;;;;;;;;;4653168;30;20049;-85
2023/07/15 00:13:18;;;;;;;4.90;4.35;;;;;;;;;;4649318;30;20072;-84
2023/07/15 00:15:45;;;;;;;4.60;3.95;;;;;;;;;;4661968;30;20053;-85
2023/07/15 00:18:14;;;;;;;5.47;4.18;;;;;;;;;;4680296;30;20049;-84
2023/07/15 00:20:44;;;;;;;4.38;3.90;;;;;;;;;;4667851;30;20042;-85
2023/07/15 00:23:29;;;;;;;6.30;3.93;;;;;;;;;;4654972;30;20069;-84
2023/07/15 00:25:58;;;;;;;4.85;3.80;;;;;;;;;;4640344;30;20104;-85
2023/07/15 00:28:24;;;;;;;5.80;4.00;;;;;;;;;;4668312;30;20570;-85
2023/07/15 00:30:51;;;;;;;5.78;4.28;;;;;;;;;;4665460;30;20415;-84
2023/07/15 00:33:20;;;;;;;4.72;3.92;;;;;;;;;;4663608;30;20100;-85
2023/07/15 00:35:48;;;;;;;4.93;3.75;;;;;;;;;;4662022;30;20176;-85
2023/07/15 00:38:14;;;;;;;5.25;4.00;;;;;;;;;;4646556;30;20053;-85
2023/07/15 00:40:50;;;;;;;7.07;4.40;;;;;;;;;;4651469;30;20128;-84
2023/07/15 00:43:35;;;;;;;4.95;3.67;;;;;;;;;;4638424;30;20072;-85
2023/07/15 00:46:22;;;;;;;6.13;4.22;;;;;;;;;;4677223;30;20144;-85
2023/07/15 00:49:00;;;;;;;5.65;3.58;;;;;;;;;;4653955;30;20557;-85
2023/07/15 00:51:27;;;;;;;7.22;3.88;;;;;;;;;;4668668;30;20105;-84
2023/07/15 00:53:56;;;;;;;6.40;4.00;;;;;;;;;;4657423;30;20053;-85
2023/07/15 00:56:28;;;;;;;5.47;3.95;;;;;;;;;;4658163;30;20141;-83
2023/07/15 00:58:57;;;;;;;4.55;3.70;;;;;;;;;;4658330;30;20113;-85
2023/07/15 01:01:39;;;;;;;5.72;3.80;;;;;;;;;;4671227;30;20105;-83
2023/07/15 01:04:08;;;;;;;5.18;3.80;;;;;;;;;;4648368;30;20127;-84
2023/07/15 01:06:55;;;;;;;5.38;3.67;;;;;;;;;;4643141;30;20073;-83
2023/07/15 01:09:22;;;;;;;5.03;3.42;;;;;;;;;;4653476;30;20482;-85
2023/07/15 01:11:49;;;;;;;5.00;3.85;;;;;;;;;;4641258;30;20084;-84
2023/07/15 01:14:17;;;;;;;5.00;3.55;;;;;;;;;;4633329;30;22625;-84
2023/07/15 01:16:46;;;;;;;5.45;3.05;;;;;;;;;;4654422;30;20045;-84
2023/07/15 01:19:12;;;;;;;4.20;3.50;;;;;;;;;;4649702;30;20042;-84
2023/07/15 01:21:38;;;;;;;4.38;3.30;;;;;;;;;;4652499;30;20054;-84
2023/07/15 01:24:07;;;;;;;4.50;3.13;;;;;;;;;;4647740;30;20147;-85
2023/07/15 01:26:33;;;;;;;4.72;2.90;;;;;;;;;;4644151;30;20515;-84
2023/07/15 01:29:03;;;;;;;4.15;3.45;;;;;;;;;;4650010;30;20056;-85
2023/07/15 01:31:30;;;;;;;4.28;3.20;;;;;;;;;;4657636;30;20053;-84
2023/07/15 01:33:56;;;;;;;5.50;3.05;;;;;;;;;;4645799;30;20128;-85
2023/07/15 01:36:24;;;;;;;5.03;2.97;;;;;;;;;;4667772;30;20045;-84
2023/07/15 01:38:50;;;;;;;4.20;3.05;;;;;;;;;;4664035;30;20079;-84
2023/07/15 01:41:16;;;;;;;4.50;3.03;;;;;;;;;;4648522;30;20144;-84
2023/07/15 01:43:42;;;;;;;5.95;3.30;;;;;;;;;;4696519;30;20132;-84
2023/07/15 01:49:17;;;;;;;3.85;2.80;;;;;;;;;;4669216;30;20621;-85
2023/07/15 01:54:52;;;;;;;4.80;3.72;;;;;;;;;;4668403;30;20049;-84
2023/07/15 01:57:18;;;;;;;3.75;2.55;;;;;;;;;;4651557;30;20410;-84
2023/07/15 01:59:44;;;;;;;4.43;2.67;;;;;;;;;;4651314;30;20053;-85
2023/07/15 02:02:36;;;;;;;5.30;2.70;;;;;;;;;;4653136;30;20061;-84
2023/07/15 02:05:12;;;;;;;5.43;3.28;;;;;;;;;;4613923;30;20617;-84
2023/07/15 02:07:40;;;;;;;5.05;2.78;;;;;;;;;;4638108;30;20479;-84
2023/07/15 02:10:06;;;;;;;4.30;2.88;;;;;;;;;;4666589;30;20049;-84
2023/07/15 02:12:35;;;;;;;4.65;3.05;;;;;;;;;;4656149;30;20494;-85
2023/07/15 02:15:03;;;;;;;6.25;2.85;;;;;;;;;;4651451;30;20139;-85
2023/07/15 02:17:29;;;;;;;5.00;3.17;;;;;;;;;;4670536;30;20133;-85
2023/07/15 02:20:04;;;;;;;5.93;2.95;;;;;;;;;;4650883;30;20045;-84
2023/07/15 02:22:34;;;;;;;3.65;2.70;;;;;;;;;;4652725;30;20067;-85
2023/07/15 02:25:09;;;;;;;4.57;2.55;;;;;;;;;;4639140;30;20060;-84
2023/07/15 02:27:35;;;;;;;5.25;3.15;;;;;;;;;;4682027;30;20057;-84
2023/07/15 02:30:01;;;;;;;5.20;2.97;;;;;;;;;;4669796;30;20049;-85
2023/07/15 02:32:39;;;;;;;3.08;2.65;;;;;;;;;;4682770;30;20056;-84
2023/07/15 02:35:23;;;;;;;5.85;3.13;;;;;;;;;;4665349;30;20096;-84
2023/07/15 02:37:49;;;;;;;2.83;2.55;;;;;;;;;;4681447;30;20238;-82
2023/07/15 02:40:16;;;;;;;4.30;3.05;;;;;;;;;;4656023;30;20574;-84
2023/07/15 02:42:43;;;;;;;4.75;3.13;;;;;;;;;;4669357;30;20050;-85
2023/07/15 02:45:12;;;;;;;6.22;2.95;;;;;;;;;;4650739;30;20155;-84
2023/07/15 02:47:40;;;;;;;5.45;3.00;;;;;;;;;;4652709;30;20080;-85
2023/07/15 02:50:07;;;;;;;3.38;2.92;;;;;;;;;;4653953;30;20115;-84
2023/07/15 02:52:34;;;;;;;3.30;2.80;;;;;;;;;;4660861;30;20085;-85
2023/07/15 02:55:01;;;;;;;4.03;2.40;;;;;;;;;;4645883;30;20053;-84
2023/07/15 02:57:27;;;;;;;4.03;2.67;;;;;;;;;;4653275;30;20064;-84
2023/07/15 02:59:57;;;;;;;3.88;2.70;;;;;;;;;;4655724;30;20170;-85
2023/07/15 03:02:23;;;;;;;4.45;3.22;;;;;;;;;;4640296;30;20057;-84
2023/07/15 03:04:49;;;;;;;4.90;2.70;;;;;;;;;;4651106;30;20391;-85
2023/07/15 03:07:16;;;;;;;4.53;2.90;;;;;;;;;;4665850;30;20534;-85
2023/07/15 03:09:42;;;;;;;4.78;2.90;;;;;;;;;;4653292;30;20117;-84
2023/07/15 03:12:11;;;;;;;4.45;2.80;;;;;;;;;;4648768;30;20110;-84
2023/07/15 03:14:38;;;;;;;3.08;2.70;;;;;;;;;;4650574;30;20080;-84
2023/07/15 03:17:06;;;;;;;4.20;2.92;;;;;;;;;;4661013;30;20050;-84
2023/07/15 03:19:32;;;;;;;4.35;3.10;;;;;;;;;;4642284;30;20049;-85
2023/07/15 03:21:59;;;;;;;8.82;3.20;;;;;;;;;;4650473;30;20053;-85
2023/07/15 03:24:25;;;;;;;3.55;2.50;;;;;;;;;;4654088;30;20363;-84
2023/07/15 03:26:52;;;;;;;3.78;3.20;;;;;;;;;;4637165;30;20103;-84
2023/07/15 03:29:25;;;;;;;5.13;2.80;;;;;;;;;;4660540;30;20144;-84
2023/07/15 03:31:51;;;;;;;4.05;2.83;;;;;;;;;;4656577;30;20472;-84
2023/07/15 03:34:20;;;;;;;4.97;3.00;;;;;;;;;;4666540;30;20457;-84
2023/07/15 03:36:46;;;;;;;4.90;2.97;;;;;;;;;;4655621;30;20096;-84
2023/07/15 03:39:12;;;;;;;3.75;3.30;;;;;;;;;;4660597;30;20053;-85
2023/07/15 03:41:38;;;;;;;3.78;2.90;;;;;;;;;;4653487;30;20045;-84
2023/07/15 03:44:05;;;;;;;3.92;2.67;;;;;;;;;;4649269;30;20068;-84
2023/07/15 03:47:13;;;;;;;3.70;2.65;;;;;;;;;;4638645;30;20451;-83
2023/07/15 03:49:43;;;;;;;3.53;3.10;;;;;;;;;;4564858;31;20851;-84
2023/07/15 03:52:10;;;;;;;4.22;2.70;;;;;;;;;;4573039;31;20062;-85
2023/07/15 03:54:39;;;;;;;4.07;3.15;;;;;;;;;;4610158;30;20054;-85
2023/07/15 03:57:07;;;;;;;5.00;2.97;;;;;;;;;;4627623;30;20046;-84
2023/07/15 03:59:33;;;;;;;3.53;2.83;;;;;;;;;;4628715;30;20042;-85
2023/07/15 04:02:04;;;;;;;3.90;2.92;;;;;;;;;;4628724;30;20054;-85
2023/07/15 04:04:33;;;;;;;4.03;2.85;;;;;;;;;;4640989;30;20062;-84
2023/07/15 04:06:59;;;;;;;5.30;2.95;;;;;;;;;;4640390;30;20133;-84
2023/07/15 04:09:26;;;;;;;3.88;2.90;;;;;;;;;;4634056;30;20129;-84
2023/07/15 04:11:52;;;;;;;4.40;2.85;;;;;;;;;;4631867;30;20118;-84
2023/07/15 04:14:18;;;;;;;5.22;3.00;;;;;;;;;;4629368;30;20054;-85
2023/07/15 04:16:44;;;;;;;4.43;3.03;;;;;;;;;;4627863;30;20046;-84
2023/07/15 04:19:10;;;;;;;3.92;2.80;;;;;;;;;;4632265;30;20068;-85
2023/07/15 04:21:36;;;;;;;3.53;3.17;;;;;;;;;;4635067;30;20065;-84
2023/07/15 04:24:52;;;;;;;5.03;3.10;;;;;;;;;;4632005;30;20128;-84
2023/07/15 04:27:12;;;;;;;3.30;3.00;;;;;;;;;;4640775;30;20152;-84
2023/07/15 04:29:44;;;;;;;3.60;2.78;;;;;;;;;;4630671;30;20054;-84
2023/07/15 04:32:19;;;;;;;3.65;2.90;;;;;;;;;;4629113;30;20127;-84
2023/07/15 04:34:57;;;;;;;;;;;;;;;;;;4637039;30;20133;-84
2023/07/15 04:37:25;;;;;;;4.30;2.88;;;;;;;;;;4646956;30;20026;-84
2023/07/15 04:39:59;;;;;;;;;;;;;;;;;;4629719;30;20053;-84
2023/07/15 04:42:26;;;;;;;4.32;3.08;;;;;;;;;;4631815;30;20031;-84
2023/07/15 04:45:10;;;;;;;3.65;2.75;;;;;;;;;;4636840;30;20092;-85
2023/07/15 04:47:41;;;;;;;2.80;2.60;;;;;;;;;;4631823;30;20054;-84
2023/07/15 04:50:10;;;;;;;3.95;2.95;;;;;;;;;;4647967;30;20762;-84
2023/07/15 04:52:36;;;;;;;5.47;2.70;;;;;;;;;;4644803;30;20054;-85
2023/07/15 04:55:02;;;;;;;4.20;2.78;;;;;;;;;;4652090;30;20909;-85
2023/07/15 04:57:32;;;;;;;2.88;2.60;;;;;;;;;;4651100;30;20471;-84
2023/07/15 04:59:58;;;;;;;4.90;2.90;;;;;;;;;;4645135;30;23792;-85
2023/07/15 05:02:24;;;;;;;3.97;2.83;;;;;;;;;;4663751;30;20046;-84
2023/07/15 05:04:50;;;;;;;4.47;2.85;;;;;;;;;;4649233;30;20081;-84
2023/07/15 05:07:16;;;;;;;4.75;2.65;;;;;;;;;;4632712;30;20404;-84
2023/07/15 05:09:43;;;;;;;5.18;2.80;;;;;;;;;;4645050;30;20141;-84
2023/07/15 05:12:10;;;;;;;2.90;2.60;;;;;;;;;;4631955;30;20499;-83
2023/07/15 05:14:37;;;;;;;4.25;2.47;;;;;;;;;;4650133;30;20047;-84
2023/07/15 05:17:03;;;;;;;4.50;3.00;;;;;;;;;;4647372;30;20049;-84
2023/07/15 05:19:32;;;;;;;2.75;2.47;;;;;;;;;;4639997;30;20137;-83
2023/07/15 05:22:01;;;;;;;5.18;2.72;;;;;;;;;;4648750;30;20061;-85
2023/07/15 05:24:43;;;;;;;3.03;2.83;;;;;;;;;;4640522;30;20373;-85
2023/07/15 05:27:27;;;;;;;4.25;2.88;;;;;;;;;;4663408;30;20423;-85
2023/07/15 05:30:01;;;;;;;3.30;3.00;;;;;;;;;;4634206;30;20092;-85
2023/07/15 05:33:00;;;;;;;3.85;2.80;;;;;;;;;;4656674;30;20058;-85
2023/07/15 05:35:28;;;;;;;4.45;2.88;;;;;;;;;;4651047;30;20052;-85
2023/07/15 05:38:13;;;;;;;2.75;2.38;;;;;;;;;;4656945;30;20050;-84
2023/07/15 05:40:57;;;;;;;5.78;2.90;;;;;;;;;;4671587;30;20499;-85
2023/07/15 05:43:26;;;;;;;3.92;2.85;;;;;;;;;;4644794;30;20053;-85
2023/07/15 05:46:01;;;;;;;4.88;2.97;;;;;;;;;;4659755;30;20137;-85
2023/07/15 05:48:27;;;;;;;5.93;3.05;;;;;;;;;;4657076;30;20046;-85
2023/07/15 05:50:56;;;;;;;4.57;2.70;;;;;;;;;;4651309;30;20058;-85
2023/07/15 05:53:22;;;;;;;3.40;2.85;;;;;;;;;;4660751;30;20491;-85
2023/07/15 05:56:00;;;;;;;7.00;2.60;;;;;;;;;;4659476;30;20062;-85
2023/07/15 05:58:26;;;;;;;;;;;;;;;;;;4644761;30;20210;-85
2023/07/15 06:01:03;;;;;;;6.07;2.67;;;;;;;;;;4661721;30;19933;-85
2023/07/15 06:03:32;;;;;;;6.13;3.13;;;;;;;;;;4641069;30;20053;-85
2023/07/15 06:06:16;;;;;;;5.72;2.75;;;;;;;;;;4656858;30;20503;-85
2023/07/15 06:08:43;;;;;;;4.88;2.58;;;;;;;;;;4658480;30;20053;-85
2023/07/15 06:11:09;;;;;;;4.15;2.65;;;;;;;;;;4642442;30;20153;-85
2023/07/15 06:13:35;;;;;;;5.50;2.75;;;;;;;;;;4656115;30;20448;-85
2023/07/15 06:16:07;;;;;;;6.55;2.88;;;;;;;;;;4651825;30;20184;-85
2023/07/15 06:18:36;;;;;;;3.05;2.50;;;;;;;;;;4657398;30;20045;-85
2023/07/15 06:21:25;;;;;;;3.47;2.65;;;;;;;;;;4649339;30;20073;-85
2023/07/15 06:23:58;;;;;;;5.22;2.80;;;;;;;;;;4650137;30;20240;-85
2023/07/15 06:26:27;;;;;;;4.32;2.83;;;;;;;;;;4639956;30;20053;-85
2023/07/15 06:28:53;;;;;;;3.53;2.47;;;;;;;;;;4654852;30;20037;-85
2023/07/15 06:31:37;;;;;;;3.20;2.65;;;;;;;;;;4638817;30;20418;-84
2023/07/15 06:34:03;;;;;;;;;;;;;;;;;;4634857;30;20037;-85
2023/07/15 06:36:31;;;;;;;4.35;2.45;;;;;;;;;;4654601;30;19950;-85
2023/07/15 06:38:58;;;;;;;4.00;2.83;;;;;;;;;;4646089;30;20050;-85
2023/07/15 06:41:32;;;;;;;2.90;2.38;;;;;;;;;;4656427;30;20522;-85
2023/07/15 06:44:16;;;;;;;6.60;3.03;;;;;;;;;;4650550;30;20466;-84
2023/07/15 06:50:18;;;;;;;10.48;2.70;;;;;;;;;;4734301;24;20129;-86
2023/07/15 06:52:46;;;;;;;3.70;2.65;;;;;;;;;;4653597;30;20064;-85
2023/07/15 06:55:12;;;;;;;6.90;2.63;;;;;;;;;;4643964;30;20049;-85
2023/07/15 06:57:38;;;;;;;3.70;2.47;;;;;;;;;;4655122;30;20042;-85
2023/07/15 07:00:05;;;;;;;4.43;2.20;;;;;;;;;;4650574;30;20045;-85
2023/07/15 07:02:31;;;;;;;3.22;2.33;;;;;;;;;;4667122;30;20115;-86
2023/07/15 07:04:57;;;;;;;4.70;2.78;;;;;;;;;;4649136;30;20164;-86
2023/07/15 07:07:23;;;;;;;3.63;2.30;;;;;;;;;;4656876;30;20084;-86
2023/07/15 07:09:49;;;;;;;4.90;2.40;;;;;;;;;;4674922;30;20485;-86
2023/07/15 07:12:15;;;;;;;7.10;2.60;;;;;;;;;;4659624;30;20053;-85
2023/07/15 07:14:41;;;;;;;6.65;2.60;;;;;;;;;;4673577;30;20049;-86
2023/07/15 07:17:07;;;;;;;3.08;2.15;;;;;;;;;;4684098;30;20045;-86
2023/07/15 07:19:33;;;;;;;5.97;2.45;;;;;;;;;;4671597;30;20049;-86
2023/07/15 07:22:00;;;;;;;3.75;2.55;;;;;;;;;;4655617;30;20050;-86
2023/07/15 07:24:26;;;;;;;2.55;2.10;;;;;;;;;;4646076;30;20132;-86
2023/07/15 07:26:52;;;;;;;3.08;2.45;;;;;;;;;;4660623;30;20429;-86
2023/07/15 07:29:18;;;;;;;2.95;2.42;;;;;;;;;;4642921;30;20140;-86
2023/07/15 07:31:44;;;;;;;2.70;2.13;;;;;;;;;;4654584;30;20105;-86
2023/07/15 07:34:10;;;;;;;4.38;2.40;;;;;;;;;;4641560;30;20045;-86
2023/07/15 07:36:36;;;;;;;2.92;2.22;;;;;;;;;;4641814;30;20069;-86
2023/07/15 07:39:02;;;;;;;3.00;2.05;;;;;;;;;;4635464;30;20054;-86
2023/07/15 07:41:28;;;;;;;6.07;2.20;;;;;;;;;;4643104;30;20140;-86
2023/07/15 07:43:54;;;;;;;5.30;2.03;;;;;;;;;;4658145;30;20054;-86
2023/07/15 07:46:20;;;;;;;2.80;2.15;;;;;;;;;;4620722;30;20053;-86
2023/07/15 07:48:46;;;;;;;3.22;2.10;;;;;;;;;;4642851;30;20049;-86
2023/07/15 07:51:13;;;;;;;2.53;1.98;;;;;;;;;;4661315;30;20053;-86
2023/07/15 07:53:40;;;;;;;4.28;2.22;;;;;;;;;;4626124;30;20078;-86
2023/07/15 07:56:06;;;;;;;6.10;2.15;;;;;;;;;;4638907;30;20058;-86
2023/07/15 07:58:32;;;;;;;2.88;1.95;;;;;;;;;;4638281;30;20169;-86
2023/07/15 08:00:58;;;;;;;3.10;1.95;;;;;;;;;;4634264;30;20049;-86
2023/07/15 08:03:24;;;;;;;2.60;1.70;;;;;;;;;;4637380;30;21087;-86
2023/07/15 08:05:50;;;;;;;2.03;1.55;;;;;;;;;;4656090;30;20049;-86
2023/07/15 08:08:16;;;;;;;2.95;1.83;;;;;;;;;;4652221;30;23114;-86
2023/07/15 08:10:42;;;;;;;2.30;1.92;;;;;;;;;;4637709;30;20081;-86
2023/07/15 08:13:08;;;;;;;2.38;1.83;;;;;;;;;;4653849;30;20600;-86
2023/07/15 08:15:35;;;;;;;2.85;1.70;;;;;;;;;;4657614;30;20046;-86
2023/07/15 08:18:01;;;;;;;2.97;1.63;;;;;;;;;;4638602;30;20045;-86
2023/07/15 08:20:29;;;;;;;5.45;1.38;;;;;;;;;;4629487;30;20045;-86
2023/07/15 08:22:56;;;;;;;2.60;1.50;;;;;;;;;;4632265;30;20686;-85
2023/07/15 08:25:22;;;;;;;2.53;1.40;;;;;;;;;;4656093;30;20530;-86
2023/07/15 08:27:48;;;;;;;3.90;1.90;;;;;;;;;;4642521;30;20159;-87
2023/07/15 08:30:14;;;;;;;1.98;1.70;;;;;;;;;;4636916;30;20053;-86
2023/07/15 08:32:40;;;;;;;6.97;1.83;;;;;;;;;;4631829;30;20056;-86
2023/07/15 08:35:06;;;;;;;2.58;1.50;;;;;;;;;;4651925;30;20046;-86
2023/07/15 08:37:32;;;;;;;3.28;1.95;;;;;;;;;;4654852;30;20061;-86
2023/07/15 08:39:58;;;;;;;3.88;1.73;;;;;;;;;;4640343;30;20056;-86
2023/07/15 08:42:24;;;;;;;2.25;1.70;;;;;;;;;;4654568;30;20073;-87
2023/07/15 08:44:51;;;;;;;3.97;1.95;;;;;;;;;;4627838;30;20060;-86
2023/07/15 08:47:20;;;;;;;2.65;1.98;;;;;;;;;;4624988;30;20058;-86
2023/07/15 08:49:50;;;;;;;3.28;1.83;;;;;;;;;;4642476;30;20061;-86
2023/07/15 08:52:17;;;;;;;6.38;1.65;;;;;;;;;;4636902;30;21367;-86
2023/07/15 08:54:44;;;;;;;5.80;1.80;;;;;;;;;;4645830;30;20054;-86
2023/07/15 08:57:10;;;;;;;2.20;1.60;;;;;;;;;;4655333;30;20058;-86
2023/07/15 08:59:36;;;;;;;2.40;1.75;;;;;;;;;;4643475;30;20050;-86
2023/07/15 09:02:02;;;;;;;2.25;1.65;;;;;;;;;;4654842;30;20141;-86
2023/07/15 09:04:29;;;;;;;1.50;1.40;;;;;;;;;;4657029;30;20077;-86
2023/07/15 09:06:58;;;;;;;2.17;1.70;;;;;;;;;;4641552;30;20567;-86
2023/07/15 09:09:31;;;;;;;2.85;1.45;;;;;;;;;;4641491;30;20084;-86
2023/07/15 09:12:00;;;;;;;2.35;1.80;;;;;;;;;;4637785;30;20082;-86
2023/07/15 09:14:26;;;;;;;2.38;1.90;;;;;;;;;;4655176;30;20133;-87
2023/07/15 09:16:56;;;;;;;3.72;1.90;;;;;;;;;;4643924;30;20058;-87
2023/07/15 09:19:24;;;;;;;3.67;2.13;;;;;;;;;;4643541;30;20407;-86
2023/07/15 09:21:51;;;;;;;2.80;1.70;;;;;;;;;;4658910;30;20107;-87
2023/07/15 09:24:17;;;;;;;1.83;1.73;;;;;;;;;;4639134;30;21352;-87
2023/07/15 09:26:44;;;;;;;4.95;1.98;;;;;;;;;;4645565;30;20054;-87
2023/07/15 09:29:10;;;;;;;3.35;1.70;;;;;;;;;;4653278;30;20068;-86
2023/07/15 09:31:36;;;;;;;3.08;1.90;;;;;;;;;;4644366;30;20129;-87
2023/07/15 09:34:03;;;;;;;2.33;1.55;;;;;;;;;;4639250;30;20046;-86
2023/07/15 09:36:32;;;;;;;3.22;1.88;;;;;;;;;;4657488;30;20057;-87
2023/07/15 09:39:02;;;;;;;2.92;1.92;;;;;;;;;;4649133;30;20133;-86
2023/07/15 09:41:28;;;;;;;3.40;1.75;;;;;;;;;;4674424;30;20042;-86
2023/07/15 09:43:54;;;;;;;2.83;1.60;;;;;;;;;;4648309;30;20054;-86
2023/07/15 09:46:21;;;;;;;3.33;1.70;;;;;;;;;;4651079;30;20081;-87
2023/07/15 09:48:47;;;;;;;3.78;1.90;;;;;;;;;;4635790;30;20054;-87
2023/07/15 09:51:16;;;;;;;4.00;1.48;;;;;;;;;;4654482;30;20519;-89
2023/07/15 09:53:51;;;;;;;2.03;1.58;;;;;;;;;;4640090;30;20403;-88
2023/07/15 09:56:17;;;;;;;1.67;1.50;;;;;;;;;;4649406;30;20691;-86
2023/07/15 09:58:47;;;;;;;2.42;1.60;;;;;;;;;;4626724;30;20498;-88
2023/07/15 10:01:25;;;;;;;4.15;1.40;;;;;;;;;;4626746;30;20542;-86
2023/07/15 10:03:58;;;;;;;3.55;1.63;;;;;;;;;;4647535;30;20053;-86
2023/07/15 10:06:24;;;;;;;2.00;1.30;;;;;;;;;;4648215;30;20053;-86
2023/07/15 10:09:03;;;;;;;;;;;;;;;;;;;;;
2023/07/15 10:11:35;;;;;;;3.65;1.40;;;;;;;;;;4652529;30;20064;-87
2023/07/15 10:14:04;;;;;;;3.40;1.52;;;;;;;;;;4622562;30;20108;-88
2023/07/15 10:16:33;;;;;;;1.70;1.38;;;;;;;;;;4659663;30;20077;-87
2023/07/15 10:19:01;;;;;;;2.25;1.30;;;;;;;;;;4650746;30;20560;-87
2023/07/15 10:21:27;;;;;;;1.90;1.40;;;;;;;;;;4637150;30;20081;-87
2023/07/15 10:24:12;;;;;;;1.60;1.30;;;;;;;;;;4626827;30;20045;-87
2023/07/15 10:26:51;;;;;;;2.83;1.27;;;;;;;;;;4670195;30;20049;-87
2023/07/15 10:29:17;;;;;;;2.13;1.30;;;;;;;;;;4644698;30;20631;-87
2023/07/15 10:31:44;;;;;;;1.45;1.35;;;;;;;;;;4639793;30;20167;-87
2023/07/15 10:34:10;;;;;;;2.10;1.30;;;;;;;;;;4646422;30;20510;-87
2023/07/15 10:36:40;;;;;;;3.05;1.55;;;;;;;;;;4650891;30;20192;-87
2023/07/15 10:39:10;;;;;;;1.70;1.00;;;;;;;;;;4656728;30;20050;-87
2023/07/15 10:41:43;;;;;;;2.17;1.27;;;;;;;;;;4644444;30;20048;-87
2023/07/15 10:44:19;;;;;;;2.40;1.27;;;;;;;;;;4652010;30;20522;-87
2023/07/15 10:46:51;;;;;;;1.77;1.10;;;;;;;;;;4628261;30;20069;-87
2023/07/15 11:31:01;;;;;;;2.15;1.58;;;;;;;;;;4983065;24;20062;-85
2023/07/15 11:36:30;;;;;;;3.45;1.90;;;;;;;;;;4671017;30;20045;-85
2023/07/15 11:39:04;;;;;;;3.10;1.48;;;;;;;;;;4653018;30;20050;-86
2023/07/15 11:41:31;;;;;;;2.00;1.52;;;;;;;;;;4628964;30;20053;-85
2023/07/15 12:00:34;;;;;;;3.22;1.67;;;;;;;;;;4665682;30;20478;-84
2023/07/15 12:07:00;;;;;;;1.70;1.60;;;;;;;;;;4608026;30;20102;-85
2023/07/15 12:09:26;;;;;;;3.20;1.58;;;;;;;;;;4641170;30;20050;-85
2023/07/15 12:11:53;;;;;;;1.80;1.58;;;;;;;;;;4636939;30;20061;-85
2023/07/15 12:14:19;;;;;;;2.05;1.80;;;;;;;;;;4614088;30;20084;-85
2023/07/15 12:16:47;;;;;;;6.33;1.60;;;;;;;;;;4641884;30;20046;-85
2023/07/15 12:19:13;;;;;;;;;;;;;;;;;;4642507;30;20723;-85
2023/07/15 12:21:39;;;;;;;2.90;1.80;;;;;;;;;;4637510;30;19927;-85
2023/07/15 12:24:05;;;;;;;2.70;1.38;;;;;;;;;;4657599;30;20049;-85
2023/07/15 12:26:31;;;;;;;2.15;1.77;;;;;;;;;;4629851;30;20049;-85
2023/07/15 12:29:01;;;;;;;5.32;1.80;;;;;;;;;;4618699;30;20540;-85
2023/07/15 12:31:27;;;;;;;3.75;1.80;;;;;;;;;;4624530;30;20057;-85
2023/07/15 12:33:53;;;;;;;2.25;1.38;;;;;;;;;;4628610;30;20034;-85
2023/07/15 12:36:19;;;;;;;2.38;1.73;;;;;;;;;;4609977;30;20073;-85
2023/07/15 12:38:45;;;;;;;2.58;1.73;;;;;;;;;;4617641;30;20647;-86
2023/07/15 12:41:12;;;;;;;2.22;1.65;;;;;;;;;;4608024;30;20058;-85
2023/07/15 12:43:38;;;;;;;2.28;1.42;;;;;;;;;;4600929;30;20054;-85
2023/07/15 12:46:04;;;;;;;3.38;1.65;;;;;;;;;;4628372;30;20780;-85
2023/07/15 12:48:30;;;;;;;4.15;1.50;;;;;;;;;;4612950;30;20058;-85
2023/07/15 12:50:56;;;;;;;2.70;1.30;;;;;;;;;;4614700;30;20047;-84
2023/07/15 12:53:25;;;;;;;6.63;1.65;;;;;;;;;;4618368;30;20898;-85
2023/07/15 12:56:14;;;;;;;3.33;1.60;;;;;;;;;;4615062;30;20066;-86
2023/07/15 12:58:57;;;;;;;4.53;1.58;;;;;;;;;;4619076;30;20058;-86
2023/07/15 13:01:26;;;;;;;1.42;1.20;;;;;;;;;;4623307;30;20510;-85
2023/07/15 13:04:40;;;;;;;3.83;1.67;;;;;;;;;;4629471;30;20084;-87
2023/07/15 13:07:35;;;;;;;2.33;1.13;;;;;;;;;;4629035;30;21849;-86
2023/07/15 13:10:01;;;;;;;1.95;1.45;;;;;;;;;;4634065;30;20050;-86
2023/07/15 13:12:27;;;;;;;2.22;1.58;;;;;;;;;;4613551;30;20166;-87
2023/07/15 13:14:54;;;;;;;2.03;1.50;;;;;;;;;;4629591;30;20058;-86
2023/07/15 13:17:20;;;;;;;2.67;1.60;;;;;;;;;;4623621;30;20591;-86
2023/07/15 13:19:46;;;;;;;1.50;1.40;;;;;;;;;;4624648;30;20046;-86
2023/07/15 13:25:56;;;;;;;2.33;1.60;;;;;;;;;;4636722;30;20124;-87
2023/07/15 13:28:54;;;;;;;2.70;1.42;;;;;;;;;;4628265;30;20077;-87
2023/07/15 13:31:29;;;;;;;1.52;1.42;;;;;;;;;;4606175;30;20059;-89
2023/07/15 13:34:05;;;;;;;1.52;1.42;;;;;;;;;;4616720;30;20449;-86
2023/07/15 13:36:49;;;;;;;2.03;1.60;;;;;;;;;;4581367;31;20448;-87
2023/07/15 13:39:45;;;;;;;1.80;1.45;;;;;;;;;;4568616;31;20580;-86
2023/07/15 13:42:34;;;;;;;3.07;1.57;;;;;;;;;;4567216;31;20580;-86
2023/07/15 13:45:09;;;;;;;1.88;1.48;;;;;;;;;;4577931;31;20654;-86
2023/07/15 13:47:35;;;;;;;3.13;1.73;;;;;;;;;;4581123;30;20066;-86
2023/07/15 13:50:03;;;;;;;5.50;1.75;;;;;;;;;;4615416;30;20042;-86
2023/07/15 13:52:38;;;;;;;2.85;1.40;;;;;;;;;;4622672;30;20503;-88
2023/07/15 13:55:04;;;;;;;1.65;1.50;;;;;;;;;;4627552;30;20058;-84
2023/07/15 13:57:37;;;;;;;2.97;1.52;;;;;;;;;;4630622;30;20161;-86
2023/07/15 14:00:09;;;;;;;2.85;1.40;;;;;;;;;;4613769;30;20121;-86
2023/07/15 14:06:46;;;;;;;;;;;;;;;;;;;;;
2023/07/15 14:15:09;;;;;;;2.42;1.65;;;;;;;;;;4674392;30;20077;-83
2023/07/15 14:17:36;;;;;;;2.03;1.50;;;;;;;;;;4659172;30;20050;-83
2023/07/15 14:20:04;;;;;;;2.08;1.65;;;;;;;;;;4650664;30;20523;-84
2023/07/15 14:22:34;;;;;;;2.05;1.70;;;;;;;;;;4674908;30;20081;-85
2023/07/15 14:25:01;;;;;;;3.70;1.70;;;;;;;;;;4668633;30;20057;-82
2023/07/15 14:27:29;;;;;;;2.40;1.77;;;;;;;;;;4679085;30;20060;-83
2023/07/15 14:29:56;;;;;;;;;;;;;;;;;;4682817;30;20506;-85
2023/07/15 14:32:24;;;;;;;2.45;1.77;;;;;;;;;;4679094;30;19942;-83
2023/07/15 14:34:51;;;;;;;2.58;1.80;;;;;;;;;;4677498;30;20054;-81
2023/07/15 14:37:19;;;;;;;7.80;1.77;;;;;;;;;;4680703;30;22643;-84
2023/07/15 14:39:46;;;;;;;3.60;1.85;;;;;;;;;;4684241;30;20050;-84
2023/07/15 14:42:15;;;;;;;3.55;2.05;;;;;;;;;;4680290;30;20513;-84
2023/07/15 14:44:42;;;;;;;2.47;1.70;;;;;;;;;;4672887;30;20053;-85
2023/07/15 14:47:10;;;;;;;2.95;1.90;;;;;;;;;;4642431;30;20053;-83
2023/07/15 14:49:38;;;;;;;4.63;1.80;;;;;;;;;;4668354;30;20061;-85
2023/07/15 14:52:06;;;;;;;6.57;1.98;;;;;;;;;;4682643;30;20061;-84
2023/07/15 14:54:33;;;;;;;2.05;1.77;;;;;;;;;;4682567;30;20061;-84
2023/07/15 14:57:00;;;;;;;1.85;1.70;;;;;;;;;;4662463;30;20498;-84
2023/07/15 14:59:28;;;;;;;9.63;2.00;;;;;;;;;;4639756;30;20041;-84
2023/07/15 15:01:55;;;;;;;3.97;2.08;;;;;;;;;;4665511;30;23930;-85
2023/07/15 15:04:24;;;;;;;2.17;1.98;;;;;;;;;;4667410;30;20088;-84
2023/07/15 15:06:52;;;;;;;2.45;1.60;;;;;;;;;;4688500;30;20064;-85
2023/07/15 15:09:19;;;;;;;4.28;2.00;;;;;;;;;;4649433;30;20585;-84
2023/07/15 15:11:46;;;;;;;;;;;;;;;;;;4670378;30;20053;-85
2023/07/15 15:14:12;;;;;;;2.35;2.10;;;;;;;;;;4659904;30;20030;-83
2023/07/15 15:16:42;;;;;;;2.10;1.90;;;;;;;;;;4661755;30;20105;-84
2023/07/15 15:19:10;;;;;;;3.33;1.83;;;;;;;;;;4656554;30;20403;-84
2023/07/15 15:21:36;;;;;;;3.15;2.20;;;;;;;;;;4642132;30;20039;-84
2023/07/15 15:24:02;;;;;;;2.72;2.22;;;;;;;;;;4667816;30;20054;-84
2023/07/15 15:26:30;;;;;;;2.95;1.80;;;;;;;;;;4670085;30;20044;-85
2023/07/15 15:29:00;;;;;;;3.67;2.20;;;;;;;;;;4672866;30;20057;-83
2023/07/15 15:31:27;;;;;;;2.47;2.05;;;;;;;;;;4657047;30;20499;-85
2023/07/15 15:33:54;;;;;;;1.92;1.73;;;;;;;;;;4671696;30;20076;-84
2023/07/15 15:36:22;;;;;;;6.20;1.95;;;;;;;;;;4652626;30;20077;-85
2023/07/15 15:38:49;;;;;;;6.80;1.83;;;;;;;;;;4654100;30;20055;-83
2023/07/15 15:41:16;;;;;;;2.30;1.80;;;;;;;;;;4662436;30;21002;-84
2023/07/15 15:43:43;;;;;;;2.65;1.80;;;;;;;;;;4654953;30;20077;-84
2023/07/15 15:46:10;;;;;;;2.60;1.85;;;;;;;;;;4640501;30;20056;-85
2023/07/15 15:48:38;;;;;;;5.60;1.63;;;;;;;;;;4665696;30;20506;-83
2023/07/15 15:51:06;;;;;;;5.15;1.75;;;;;;;;;;4640256;30;20490;-84
2023/07/15 15:53:34;;;;;;;5.18;1.63;;;;;;;;;;4651568;30;20470;-83
2023/07/15 15:56:02;;;;;;;2.10;1.70;;;;;;;;;;4666431;30;20096;-83
2023/07/15 15:58:31;;;;;;;1.98;1.65;;;;;;;;;;4653430;30;20053;-84
2023/07/15 16:00:59;;;;;;;1.60;1.50;;;;;;;;;;4652173;30;20058;-84
2023/07/15 16:03:28;;;;;;;;;;;;;;;;;;4664260;30;20062;-84
2023/07/15 16:06:05;;;;;;;3.78;1.80;;;;;;;;;;4660608;30;20356;-82
2023/07/15 16:08:35;;;;;;;4.13;2.13;;;;;;;;;;4664877;30;20152;-84
2023/07/15 16:11:03;;;;;;;2.60;1.85;;;;;;;;;;4662605;30;20414;-83
2023/07/15 16:13:30;;;;;;;1.95;1.63;;;;;;;;;;4671774;30;20085;-83
2023/07/15 16:15:56;;;;;;;4.13;2.30;;;;;;;;;;4668028;30;20098;-82
2023/07/15 16:18:23;;;;;;;3.20;1.70;;;;;;;;;;4651311;30;20052;-83
2023/07/15 16:20:51;;;;;;;3.72;1.90;;;;;;;;;;4655503;30;20053;-83
2023/07/15 16:23:18;;;;;;;4.85;1.88;;;;;;;;;;4649902;30;20712;-84
2023/07/15 16:25:46;;;;;;;;;;;;;;;;;;4669784;30;20127;-85
2023/07/15 16:28:13;;;;;;;4.15;2.20;;;;;;;;;;4649325;30;19977;-83
2023/07/15 16:30:41;;;;;;;4.53;1.70;;;;;;;;;;4670297;30;20534;-81